createdAt,value
2022-10-23T00:02:26.262Z,15.59
2022-10-23T00:04:58.497Z,15.62
2022-10-23T00:10:09.327Z,15.59
2022-10-23T00:12:41.771Z,15.57
2022-10-23T00:15:12.793Z,15.57
2022-10-23T00:17:45.345Z,15.50
2022-10-23T00:20:18.627Z,15.48
2022-10-23T00:22:50.790Z,15.50
2022-10-23T00:25:23.032Z,15.48
2022-10-23T00:27:55.132Z,15.46
2022-10-23T00:30:27.439Z,15.44
2022-10-23T00:32:59.731Z,15.43
2022-10-23T00:35:31.980Z,15.38
2022-10-23T00:38:04.158Z,15.38
2022-10-23T00:40:36.537Z,15.39
2022-10-23T00:43:11.838Z,15.38
2022-10-23T00:45:44.112Z,15.32
2022-10-23T00:48:16.850Z,15.29
2022-10-23T00:50:47.373Z,15.30
2022-10-23T00:53:20.262Z,15.27
2022-10-23T00:55:55.004Z,15.27
2022-10-23T00:58:27.263Z,15.24
2022-10-23T01:00:59.448Z,15.16
2022-10-23T01:03:32.042Z,15.11
2022-10-23T01:06:04.955Z,15.06
2022-10-23T01:08:42.556Z,15.04
2022-10-23T01:11:16.765Z,15.03
2022-10-23T01:13:56.030Z,14.98
2022-10-23T01:16:35.116Z,14.96
2022-10-23T01:19:13.144Z,14.94
2022-10-23T01:21:54.908Z,14.93
2022-10-23T01:24:37.682Z,14.93
2022-10-23T01:27:19.263Z,14.87
2022-10-23T01:29:59.353Z,14.80
2022-10-23T01:32:35.664Z,14.77
2022-10-23T01:35:11.698Z,14.71
2022-10-23T01:37:46.694Z,14.67
2022-10-23T01:40:23.942Z,14.65
2022-10-23T01:42:58.401Z,14.67
2022-10-23T01:45:35.744Z,14.71
2022-10-23T01:48:10.531Z,14.73
2022-10-23T01:50:43.715Z,14.74
2022-10-23T01:53:16.071Z,14.76
2022-10-23T01:55:49.855Z,14.78
2022-10-23T01:58:22.798Z,14.81
2022-10-23T02:00:55.843Z,14.82
2022-10-23T02:03:29.765Z,14.82
2022-10-23T02:06:02.056Z,14.83
2022-10-23T02:08:34.312Z,14.81
2022-10-23T02:11:11.322Z,14.77
2022-10-23T02:13:48.267Z,14.73
2022-10-23T02:16:26.627Z,14.73
2022-10-23T02:19:05.829Z,14.74
2022-10-23T02:21:42.997Z,14.72
2022-10-23T02:24:17.463Z,14.72
2022-10-23T02:26:54.106Z,14.68
2022-10-23T02:29:29.561Z,14.67
2022-10-23T02:32:01.754Z,14.67
2022-10-23T02:34:34.432Z,14.69
2022-10-23T02:37:05.122Z,14.68
2022-10-23T02:39:37.410Z,14.69
2022-10-23T02:42:14.900Z,14.74
2022-10-23T02:44:54.975Z,14.78
2022-10-23T02:47:38.814Z,14.81
2022-10-23T02:50:16.947Z,14.83
2022-10-23T02:52:54.609Z,14.87
2022-10-23T02:55:35.438Z,14.92
2022-10-23T02:58:13.968Z,14.95
2022-10-23T03:00:50.406Z,14.98
2022-10-23T03:03:25.907Z,14.99
2022-10-23T03:05:58.193Z,15.00
2022-10-23T03:08:30.474Z,15.02
2022-10-23T03:11:02.786Z,15.01
2022-10-23T03:13:34.913Z,15.02
2022-10-23T03:16:07.386Z,15.03
2022-10-23T03:18:37.952Z,15.03
2022-10-23T03:21:10.447Z,15.01
2022-10-23T03:23:42.851Z,15.02
2022-10-23T03:26:15.297Z,15.02
2022-10-23T03:28:47.479Z,15.00
2022-10-23T03:31:19.673Z,14.95
2022-10-23T03:33:51.989Z,14.95
2022-10-23T03:36:24.196Z,14.91
2022-10-23T03:38:56.577Z,14.89
2022-10-23T03:41:28.880Z,14.88
2022-10-23T03:44:01.173Z,14.85
2022-10-23T03:46:33.453Z,14.81
2022-10-23T03:49:05.972Z,14.78
2022-10-23T03:51:36.735Z,14.77
2022-10-23T03:54:09.223Z,14.72
2022-10-23T03:56:39.741Z,14.69
2022-10-23T03:59:11.974Z,14.64
2022-10-23T04:01:44.279Z,14.63
2022-10-23T04:04:17.347Z,14.61
2022-10-23T04:06:49.673Z,14.57
2022-10-23T04:09:22.060Z,14.52
2022-10-23T04:11:54.171Z,14.49
2022-10-23T04:14:27.065Z,14.46
2022-10-23T04:16:59.253Z,14.42
2022-10-23T04:19:31.579Z,14.37
2022-10-23T04:22:03.684Z,14.31
2022-10-23T04:24:35.811Z,14.30
2022-10-23T04:27:08.073Z,14.28
2022-10-23T04:29:40.184Z,14.23
2022-10-23T04:32:12.347Z,14.20
2022-10-23T04:34:44.526Z,14.18
2022-10-23T04:37:16.786Z,14.15
2022-10-23T04:39:49.071Z,14.13
2022-10-23T04:42:21.365Z,14.09
2022-10-23T04:44:53.657Z,14.07
2022-10-23T04:47:26.342Z,14.06
2022-10-23T04:49:58.544Z,14.03
2022-10-23T04:52:30.706Z,14.00
2022-10-23T04:55:03.005Z,13.94
2022-10-23T04:57:35.225Z,13.89
2022-10-23T05:00:10.935Z,13.88
2022-10-23T05:02:43.466Z,13.86
2022-10-23T05:05:16.036Z,13.84
2022-10-23T05:07:48.372Z,13.84
2022-10-23T05:10:20.797Z,13.80
2022-10-23T05:12:53.065Z,13.78
2022-10-23T05:15:25.282Z,13.76
2022-10-23T05:18:00.495Z,13.74
2022-10-23T05:20:35.125Z,13.72
2022-10-23T05:23:11.138Z,13.72
2022-10-23T05:25:43.375Z,13.71
2022-10-23T05:28:18.677Z,13.68
2022-10-23T05:30:53.375Z,13.66
2022-10-23T05:33:26.168Z,13.66
2022-10-23T05:35:58.718Z,13.68
2022-10-23T05:38:29.817Z,13.68
2022-10-23T05:41:05.069Z,13.65
2022-10-23T05:43:38.119Z,13.68
2022-10-23T05:46:11.970Z,13.72
2022-10-23T05:48:48.388Z,13.73
2022-10-23T05:51:25.686Z,13.76
2022-10-23T05:54:01.424Z,13.80
2022-10-23T05:56:34.308Z,13.84
2022-10-23T05:59:11.621Z,13.86
2022-10-23T06:02:06.265Z,13.93
2022-10-23T06:04:43.070Z,13.94
2022-10-23T06:07:22.811Z,13.98
2022-10-23T06:10:04.407Z,14.02
2022-10-23T06:12:36.932Z,14.03
2022-10-23T06:15:10.338Z,14.05
2022-10-23T06:17:44.175Z,14.06
2022-10-23T06:20:17.136Z,14.12
2022-10-23T06:22:47.831Z,14.19
2022-10-23T06:25:28.895Z,14.24
2022-10-23T06:28:02.079Z,14.33
2022-10-23T06:30:44.982Z,14.41
2022-10-23T06:33:17.847Z,14.47
2022-10-23T06:35:50.648Z,14.53
2022-10-23T06:38:23.419Z,14.60
2022-10-23T06:41:07.756Z,14.68
2022-10-23T06:43:43.302Z,14.76
2022-10-23T06:46:18.365Z,14.83
2022-10-23T06:48:51.137Z,14.91
2022-10-23T06:51:25.338Z,14.98
2022-10-23T06:53:57.886Z,15.05
2022-10-23T06:56:29.445Z,15.11
2022-10-23T06:59:01.871Z,15.16
2022-10-23T07:07:55.335Z,15.41
2022-10-23T07:14:55.133Z,15.55
2022-10-23T07:18:14.851Z,15.64
2022-10-23T07:25:34.590Z,15.86
2022-10-23T07:28:22.405Z,15.97
2022-10-23T07:31:00.782Z,16.06
2022-10-23T07:33:33.165Z,16.14
2022-10-23T07:36:07.495Z,16.22
2022-10-23T07:38:42.835Z,16.30
2022-10-23T07:41:16.607Z,16.38
2022-10-23T07:43:49.014Z,16.46
2022-10-23T07:46:22.214Z,16.53
2022-10-23T07:48:56.984Z,16.59
2022-10-23T07:51:30.096Z,16.66
2022-10-23T07:54:02.869Z,16.74
2022-10-23T07:56:37.600Z,16.81
2022-10-23T07:59:11.261Z,16.91
2022-10-23T08:01:45.871Z,17.00
2022-10-23T08:04:19.573Z,17.09
2022-10-23T08:06:52.270Z,17.17
2022-10-23T08:09:27.933Z,17.28
2022-10-23T08:12:00.470Z,17.39
2022-10-23T08:14:33.181Z,17.50
2022-10-23T08:17:05.464Z,17.58
2022-10-23T08:19:38.469Z,17.66
2022-10-23T08:22:27.644Z,17.79
2022-10-23T08:24:58.267Z,17.87
2022-10-23T08:27:35.572Z,17.93
2022-10-23T08:30:09.605Z,18.02
2022-10-23T08:32:41.978Z,18.11
2022-10-23T08:35:16.865Z,18.20
2022-10-23T08:37:49.283Z,18.32
2022-10-23T08:40:25.345Z,18.44
2022-10-23T08:43:16.050Z,18.56
2022-10-23T08:45:51.435Z,18.68
2022-10-23T08:48:30.312Z,18.76
2022-10-23T08:58:37.837Z,19.12
2022-10-23T09:01:28.272Z,19.21
2022-10-23T09:04:00.905Z,19.32
2022-10-23T09:06:35.077Z,19.41
2022-10-23T09:09:23.117Z,19.48
2022-10-23T09:12:01.274Z,19.58
2022-10-23T09:14:58.500Z,19.68
2022-10-23T09:17:33.090Z,19.81
2022-10-23T09:20:18.254Z,19.96
2022-10-23T09:22:51.605Z,20.14
2022-10-23T09:25:26.852Z,20.34
2022-10-23T09:28:22.908Z,20.60
2022-10-23T09:30:55.414Z,20.87
2022-10-23T09:33:26.532Z,21.20
2022-10-23T09:36:01.639Z,21.61
2022-10-23T09:38:35.322Z,22.06
2022-10-23T09:41:13.258Z,22.45
2022-10-23T09:43:45.471Z,22.86
2022-10-23T09:46:17.644Z,23.29
2022-10-23T09:49:03.487Z,23.81
2022-10-23T09:51:41.947Z,24.36
2022-10-23T09:54:19.638Z,24.84
2022-10-23T09:56:52.195Z,25.27
2022-10-23T09:59:27.928Z,25.58
2022-10-23T10:02:04.181Z,25.99
2022-10-23T10:04:39.194Z,26.36
2022-10-23T10:07:21.378Z,26.66
2022-10-23T10:09:55.613Z,27.01
2022-10-23T10:12:38.023Z,27.41
2022-10-23T10:15:23.927Z,27.74
2022-10-23T10:18:03.044Z,27.97
2022-10-23T10:20:55.648Z,28.17
2022-10-23T10:23:33.594Z,28.41
2022-10-23T10:26:14.884Z,28.65
2022-10-23T10:28:55.871Z,28.84
2022-10-23T10:31:35.111Z,28.90
2022-10-23T10:34:14.085Z,29.00
2022-10-23T10:36:51.126Z,29.12
2022-10-23T10:39:33.224Z,29.38
2022-10-23T10:42:08.363Z,29.71
2022-10-23T10:44:47.745Z,30.07
2022-10-23T10:47:25.682Z,30.16
2022-10-23T10:50:08.174Z,30.36
2022-10-23T10:52:49.163Z,30.53
2022-10-23T10:55:24.935Z,30.58
2022-10-23T10:58:00.564Z,30.75
2022-10-23T11:00:34.617Z,30.87
2022-10-23T11:03:15.045Z,31.08
2022-10-23T11:05:48.812Z,31.25
2022-10-23T11:08:27.865Z,31.23
2022-10-23T11:11:03.001Z,31.40
2022-10-23T11:13:38.135Z,31.60
2022-10-23T11:16:14.407Z,31.73
2022-10-23T11:18:50.167Z,31.82
2022-10-23T11:21:29.227Z,31.88
2022-10-23T11:24:30.813Z,32.06
2022-10-23T11:27:15.468Z,32.23
2022-10-23T11:30:05.369Z,32.36
2022-10-23T11:32:52.545Z,32.50
2022-10-23T11:35:34.330Z,32.49
2022-10-23T11:38:10.477Z,32.44
2022-10-23T11:40:46.849Z,32.40
2022-10-23T11:43:31.425Z,32.27
2022-10-23T11:46:14.966Z,32.09
2022-10-23T11:48:47.961Z,32.00
2022-10-23T11:51:31.740Z,32.07
2022-10-23T11:54:27.333Z,32.23
2022-10-23T11:57:13.403Z,32.48
2022-10-23T11:59:55.254Z,32.53
2022-10-23T12:02:27.969Z,32.67
2022-10-23T12:05:02.006Z,32.91
2022-10-23T12:07:35.865Z,33.01
2022-10-23T12:10:20.097Z,32.70
2022-10-23T12:13:00.312Z,32.40
2022-10-23T12:15:33.368Z,32.54
2022-10-23T12:18:17.427Z,32.74
2022-10-23T12:20:51.795Z,32.83
2022-10-23T12:23:48.277Z,32.83
2022-10-23T12:26:44.059Z,32.90
2022-10-23T12:29:25.708Z,32.94
2022-10-23T12:32:02.580Z,33.00
2022-10-23T12:34:44.677Z,32.76
2022-10-23T12:37:28.795Z,32.56
2022-10-23T12:40:10.716Z,32.32
2022-10-23T12:42:44.680Z,32.11
2022-10-23T12:45:20.915Z,32.11
2022-10-23T12:47:54.129Z,32.22
2022-10-23T12:50:29.363Z,32.37
2022-10-23T12:53:03.287Z,32.43
2022-10-23T12:55:50.321Z,32.53
2022-10-23T12:58:26.608Z,32.66
2022-10-23T13:01:01.528Z,32.68
2022-10-23T13:03:36.295Z,32.71
2022-10-23T13:06:12.055Z,32.66
2022-10-23T13:08:46.621Z,32.50
2022-10-23T13:11:20.349Z,32.55
2022-10-23T13:13:52.604Z,32.59
2022-10-23T13:16:26.914Z,32.59
2022-10-23T13:18:59.685Z,32.64
2022-10-23T13:21:33.030Z,32.59
2022-10-23T13:24:05.516Z,32.48
2022-10-23T13:26:45.361Z,32.16
2022-10-23T13:29:22.243Z,31.91
2022-10-23T13:31:54.952Z,31.73
2022-10-23T13:34:30.839Z,31.59
2022-10-23T13:37:19.892Z,31.55
2022-10-23T13:40:02.442Z,31.41
2022-10-23T13:42:34.926Z,31.13
2022-10-23T13:45:10.316Z,30.97
2022-10-23T13:47:42.814Z,30.86
2022-10-23T13:50:15.367Z,30.74
2022-10-23T13:52:56.572Z,30.60
2022-10-23T13:55:33.628Z,30.49
2022-10-23T13:58:05.938Z,30.33
2022-10-23T14:00:39.170Z,30.15
2022-10-23T14:03:12.195Z,29.99
2022-10-23T14:05:44.320Z,29.72
2022-10-23T14:08:16.465Z,29.42
2022-10-23T14:10:49.185Z,29.24
2022-10-23T14:13:21.469Z,29.00
2022-10-23T14:15:57.639Z,28.75
2022-10-23T14:18:29.784Z,28.54
2022-10-23T14:21:04.098Z,28.41
2022-10-23T14:23:36.354Z,28.27
2022-10-23T14:26:10.527Z,28.12
2022-10-23T14:28:42.788Z,28.01
2022-10-23T14:31:16.641Z,27.88
2022-10-23T14:33:52.308Z,27.77
2022-10-23T14:36:26.457Z,27.65
2022-10-23T14:39:03.153Z,27.47
2022-10-23T14:41:35.407Z,27.28
2022-10-23T14:44:07.901Z,27.16
2022-10-23T14:46:40.140Z,27.02
2022-10-23T14:49:12.577Z,26.90
2022-10-23T14:51:44.869Z,26.74
2022-10-23T14:54:17.682Z,26.61
2022-10-23T14:56:50.250Z,26.46
2022-10-23T14:59:25.574Z,26.30
2022-10-23T15:01:59.056Z,26.16
2022-10-23T15:05:04.141Z,26.02
2022-10-23T15:07:47.846Z,25.84
2022-10-23T15:10:47.170Z,25.68
2022-10-23T15:13:24.265Z,25.52
2022-10-23T15:16:17.434Z,25.37
2022-10-23T15:18:50.076Z,25.21
2022-10-23T15:21:23.037Z,25.08
2022-10-23T15:23:55.517Z,24.96
2022-10-23T15:26:26.196Z,24.85
2022-10-23T15:29:00.949Z,24.67
2022-10-23T15:31:47.361Z,24.56
2022-10-23T15:34:22.127Z,24.41
2022-10-23T15:36:55.579Z,24.29
2022-10-23T15:39:33.731Z,24.16
2022-10-23T15:42:07.415Z,24.03
2022-10-23T15:44:39.810Z,23.89
2022-10-23T15:47:11.996Z,23.75
2022-10-23T15:49:42.548Z,23.63
2022-10-23T15:52:15.204Z,23.41
2022-10-23T15:54:48.069Z,23.22
2022-10-23T15:57:20.581Z,22.89
2022-10-23T15:59:53.524Z,22.68
2022-10-23T16:02:27.486Z,22.51
2022-10-23T16:04:59.895Z,22.40
2022-10-23T16:07:30.532Z,22.30
2022-10-23T16:10:04.220Z,22.17
2022-10-23T16:12:36.527Z,22.09
2022-10-23T16:15:10.520Z,22.02
2022-10-23T16:17:43.462Z,21.91
2022-10-23T16:20:15.969Z,21.78
2022-10-23T16:22:46.384Z,21.71
2022-10-23T16:25:18.890Z,21.63
2022-10-23T16:27:51.113Z,21.56
2022-10-23T16:30:24.390Z,21.46
2022-10-23T16:32:56.642Z,21.36
2022-10-23T16:35:31.167Z,21.28
2022-10-23T16:38:03.373Z,21.19
2022-10-23T16:40:35.613Z,21.17
2022-10-23T16:43:07.817Z,21.22
2022-10-23T16:45:40.045Z,21.29
2022-10-23T16:48:11.146Z,21.36
2022-10-23T16:50:43.403Z,21.35
2022-10-23T16:53:16.180Z,21.35
2022-10-23T16:55:48.258Z,21.34
2022-10-23T16:58:20.648Z,21.26
2022-10-23T17:00:59.201Z,21.13
2022-10-23T17:03:32.755Z,20.91
2022-10-23T17:06:08.945Z,20.80
2022-10-23T17:08:44.575Z,20.72
2022-10-23T17:11:21.123Z,20.63
2022-10-23T17:13:59.252Z,20.51
2022-10-23T17:16:36.365Z,20.41
2022-10-23T17:19:39.782Z,20.35
2022-10-23T17:22:10.907Z,20.30
2022-10-23T17:24:48.766Z,20.21
2022-10-23T17:27:27.220Z,20.15
2022-10-23T17:30:12.772Z,20.10
2022-10-23T17:32:48.234Z,20.04
2022-10-23T17:35:24.464Z,19.96
2022-10-23T17:38:02.370Z,19.92
2022-10-23T17:41:35.407Z,19.91
2022-10-23T17:44:08.569Z,19.84
2022-10-23T17:46:42.525Z,19.82
2022-10-23T17:50:02.781Z,19.84
2022-10-23T17:52:34.587Z,19.78
2022-10-23T17:55:06.831Z,19.77
2022-10-23T17:57:37.867Z,19.72
2022-10-23T18:00:08.348Z,19.64
2022-10-23T18:02:37.336Z,19.55
2022-10-23T18:05:07.756Z,19.50
2022-10-23T18:07:36.683Z,19.48
2022-10-23T18:10:07.243Z,19.48
2022-10-23T18:12:36.518Z,19.50
2022-10-23T18:15:07.605Z,19.50
2022-10-23T18:17:36.451Z,19.50
2022-10-23T18:20:07.083Z,19.50
2022-10-23T18:22:39.213Z,19.45
2022-10-23T18:25:09.651Z,19.40
2022-10-23T18:27:41.780Z,19.38
2022-10-23T18:30:15.542Z,19.36
2022-10-23T18:32:59.192Z,19.33
2022-10-23T18:35:49.553Z,19.27
2022-10-23T18:38:31.733Z,19.22
2022-10-23T18:41:24.335Z,19.18
2022-10-23T18:44:04.692Z,19.15
2022-10-23T18:47:02.770Z,19.10
2022-10-23T18:49:41.229Z,19.05
2022-10-23T18:52:34.147Z,19.02
2022-10-23T18:55:13.715Z,18.99
2022-10-23T18:58:14.075Z,18.95
2022-10-23T19:00:49.263Z,18.89
2022-10-23T19:03:18.937Z,18.86
2022-10-23T19:05:57.529Z,18.81
2022-10-23T19:08:30.935Z,18.75
2022-10-23T19:11:06.896Z,18.72
2022-10-23T19:13:39.041Z,18.69
2022-10-23T19:16:21.879Z,18.67
2022-10-23T19:18:59.345Z,18.61
2022-10-23T19:21:38.419Z,18.57
2022-10-23T19:24:12.555Z,18.55
2022-10-23T19:26:46.470Z,18.53
2022-10-23T19:29:22.242Z,18.49
2022-10-23T19:31:56.379Z,18.43
2022-10-23T19:34:50.452Z,18.30
2022-10-23T19:37:40.298Z,18.18
2022-10-23T19:40:12.886Z,18.07
2022-10-23T19:42:41.820Z,18.03
2022-10-23T19:45:13.536Z,17.98
2022-10-23T19:47:43.064Z,17.96
2022-10-23T19:50:13.164Z,17.94
2022-10-23T19:52:42.673Z,17.86
2022-10-23T19:55:12.771Z,17.75
2022-10-23T19:57:43.611Z,17.73
2022-10-23T20:00:15.987Z,17.72
2022-10-23T20:02:51.483Z,17.69
2022-10-23T20:05:24.525Z,17.64
2022-10-23T20:07:54.101Z,17.51
2022-10-23T20:10:25.403Z,17.37
2022-10-23T20:13:08.136Z,17.34
2022-10-23T20:15:46.596Z,17.30
2022-10-23T20:18:16.306Z,17.27
2022-10-23T20:20:46.365Z,17.21
2022-10-23T20:23:16.981Z,17.20
2022-10-23T20:25:46.738Z,17.22
2022-10-23T20:28:32.481Z,17.22
2022-10-23T20:31:28.832Z,17.20
2022-10-23T20:34:00.002Z,17.10
2022-10-23T20:36:32.016Z,17.05
2022-10-23T20:39:04.353Z,17.05
2022-10-23T20:41:37.438Z,17.04
2022-10-23T20:44:08.854Z,17.04
2022-10-23T20:46:38.715Z,17.02
2022-10-23T20:49:08.270Z,16.99
2022-10-23T20:51:37.636Z,16.96
2022-10-23T20:54:08.276Z,16.95
2022-10-23T20:56:39.426Z,16.92
2022-10-23T20:59:12.207Z,16.90
2022-10-23T21:01:43.869Z,16.88
2022-10-23T21:04:15.093Z,16.86
2022-10-23T21:07:08.202Z,16.84
2022-10-23T21:09:35.114Z,16.80
2022-10-23T21:12:05.885Z,16.78
2022-10-23T21:14:35.821Z,16.74
2022-10-23T21:17:19.829Z,16.70
2022-10-23T21:19:50.163Z,16.65
2022-10-23T21:22:19.531Z,16.55
2022-10-23T21:24:49.586Z,16.44
2022-10-23T21:27:19.090Z,16.41
2022-10-23T21:29:48.614Z,16.38
2022-10-23T21:32:21.294Z,16.34
2022-10-23T21:34:55.080Z,16.32
2022-10-23T21:37:25.409Z,16.27
2022-10-23T21:39:55.333Z,16.25
2022-10-23T21:42:33.052Z,16.23
2022-10-23T21:45:01.999Z,16.22
2022-10-23T21:47:31.126Z,16.18
2022-10-23T21:50:02.311Z,16.09
2022-10-23T21:52:36.666Z,16.05
2022-10-23T21:55:08.527Z,16.04
2022-10-23T21:57:38.456Z,16.02
2022-10-23T22:00:13.775Z,16.01
2022-10-23T22:02:44.226Z,16.00
2022-10-23T22:05:16.094Z,15.98
2022-10-23T22:07:48.678Z,15.93
2022-10-23T22:10:18.628Z,15.89
2022-10-23T22:12:48.258Z,15.86
2022-10-23T22:15:18.095Z,15.85
2022-10-23T22:17:47.415Z,15.84
2022-10-23T22:20:16.704Z,15.78
2022-10-23T22:22:45.953Z,15.73
2022-10-23T22:25:15.570Z,15.71
2022-10-23T22:27:45.268Z,15.69
2022-10-23T22:30:14.972Z,15.69
2022-10-23T22:32:44.483Z,15.68
2022-10-23T22:35:14.325Z,15.66
2022-10-23T22:37:43.509Z,15.62
2022-10-23T22:40:13.993Z,15.57
2022-10-23T22:42:43.952Z,15.56
2022-10-23T22:45:14.273Z,15.55
2022-10-23T22:47:43.502Z,15.53
2022-10-23T22:50:13.161Z,15.52
2022-10-23T22:52:42.667Z,15.49
2022-10-23T22:55:12.827Z,15.48
2022-10-23T22:57:42.439Z,15.47
2022-10-23T23:00:14.847Z,15.45
2022-10-23T23:02:47.050Z,15.43
2022-10-23T23:05:16.647Z,15.41
2022-10-23T23:07:46.252Z,15.39
2022-10-23T23:10:16.897Z,15.35
2022-10-23T23:12:46.706Z,15.34
2022-10-23T23:15:16.312Z,15.33
2022-10-23T23:17:46.429Z,15.31
2022-10-23T23:20:16.391Z,15.29
2022-10-23T23:22:46.188Z,15.27
2022-10-23T23:25:16.109Z,15.23
2022-10-23T23:27:45.939Z,15.22
2022-10-23T23:30:15.479Z,15.19
2022-10-23T23:32:45.017Z,15.19
2022-10-23T23:35:15.245Z,15.19
2022-10-23T23:37:45.026Z,15.18
2022-10-23T23:40:15.252Z,15.14
2022-10-23T23:42:46.517Z,15.06
2022-10-23T23:45:16.093Z,15.01
2022-10-23T23:47:48.935Z,14.98
2022-10-23T23:50:19.420Z,14.98
2022-10-23T23:52:49.492Z,14.97
2022-10-23T23:55:19.452Z,14.97
2022-10-23T23:57:49.325Z,14.96
